Time;durP1;ratioP1;P1;durP2;ratioP2;P2;SDS_P1;SDS_P2;PMS_P1;PMS_P2;Temp;Humidity;BMP_temperature;BMP_pressure;BME280_temperature;BME280_humidity;BME280_pressure;Samples;Min_cycle;Max_cycle;Signal;HPM_P1;HPM_P2
2023/12/11 00:00:48;;;;;;;16.27;7.43;;;;;;;;;;5068216;28;20748;-46
2023/12/11 00:03:14;;;;;;;7.95;4.72;;;;;;;;;;5068181;28;20082;-50
2023/12/11 00:05:41;;;;;;;9.57;5.10;;;;;;;;;;5068144;28;20024;-49
2023/12/11 00:08:07;;;;;;;10.68;5.32;;;;;;;;;;5068013;28;20502;-48
2023/12/11 00:10:33;;;;;;;12.30;6.28;;;;;;;;;;5066623;28;20524;-47
2023/12/11 00:12:59;;;;;;;14.80;6.70;;;;;;;;;;5067784;28;20036;-46
2023/12/11 00:15:25;;;;;;;11.18;5.65;;;;;;;;;;5067556;28;20105;-44
2023/12/11 00:17:51;;;;;;;11.32;5.82;;;;;;;;;;5064203;28;20025;-46
2023/12/11 00:20:17;;;;;;;10.13;5.60;;;;;;;;;;5047806;28;20029;-46
2023/12/11 00:22:43;;;;;;;8.65;4.93;;;;;;;;;;5050070;28;20035;-47
2023/12/11 00:25:13;;;;;;;15.50;6.80;;;;;;;;;;5046678;28;20025;-49
2023/12/11 00:27:39;;;;;;;12.55;6.68;;;;;;;;;;5047997;28;20029;-48
2023/12/11 00:30:06;;;;;;;19.25;8.43;;;;;;;;;;5049451;28;20056;-48
2023/12/11 00:32:31;;;;;;;10.40;5.93;;;;;;;;;;5058881;28;20366;-50
2023/12/11 00:34:57;;;;;;;18.50;7.05;;;;;;;;;;5061360;28;20017;-45
2023/12/11 00:37:24;;;;;;;9.73;5.75;;;;;;;;;;5059177;28;20017;-44
2023/12/11 00:39:50;;;;;;;11.55;5.95;;;;;;;;;;5061819;28;20013;-45
2023/12/11 00:42:16;;;;;;;9.90;5.60;;;;;;;;;;5077101;23;20035;-60
2023/12/11 00:44:42;;;;;;;16.02;7.95;;;;;;;;;;5127825;27;20028;-60
2023/12/11 00:47:08;;;;;;;17.77;7.50;;;;;;;;;;5130517;27;20026;-61
2023/12/11 00:49:34;;;;;;;18.58;7.35;;;;;;;;;;5130064;27;20015;-60
2023/12/11 00:52:00;;;;;;;15.63;7.45;;;;;;;;;;5129488;27;20160;-61
2023/12/11 00:54:26;;;;;;;17.95;8.18;;;;;;;;;;5101962;28;20016;-61
2023/12/11 00:56:52;;;;;;;9.73;5.57;;;;;;;;;;5114403;27;20098;-61
2023/12/11 00:59:18;;;;;;;13.02;7.45;;;;;;;;;;5129967;27;20022;-61
2023/12/11 01:01:44;;;;;;;16.52;6.28;;;;;;;;;;5130463;27;20047;-61
2023/12/11 01:04:12;;;;;;;14.85;6.78;;;;;;;;;;5112044;27;20027;-62
2023/12/11 01:06:38;;;;;;;13.00;6.35;;;;;;;;;;5130616;27;20031;-61
2023/12/11 01:09:04;;;;;;;10.82;6.05;;;;;;;;;;5130210;27;20050;-62
2023/12/11 01:11:30;;;;;;;8.63;5.10;;;;;;;;;;5111465;27;20437;-62
2023/12/11 01:13:56;;;;;;;12.73;6.15;;;;;;;;;;5130087;27;20047;-62
2023/12/11 01:16:22;;;;;;;8.48;5.03;;;;;;;;;;5130090;27;20038;-62
2023/12/11 01:18:48;;;;;;;21.88;7.80;;;;;;;;;;5130092;27;20015;-63
2023/12/11 01:21:14;;;;;;;11.50;5.80;;;;;;;;;;5129828;27;20023;-61
2023/12/11 01:23:40;;;;;;;17.35;6.53;;;;;;;;;;5111141;27;20477;-62
2023/12/11 01:26:06;;;;;;;10.73;5.53;;;;;;;;;;5130042;27;20023;-62
2023/12/11 01:28:32;;;;;;;9.98;6.00;;;;;;;;;;5129250;27;20027;-63
2023/12/11 01:30:58;;;;;;;12.63;6.03;;;;;;;;;;5115631;27;20023;-62
2023/12/11 01:33:24;;;;;;;11.02;5.50;;;;;;;;;;5109351;28;20481;-62
2023/12/11 01:35:50;;;;;;;10.70;5.43;;;;;;;;;;5109407;28;20019;-62
2023/12/11 01:38:16;;;;;;;14.48;6.32;;;;;;;;;;5126173;28;20015;-63
2023/12/11 01:40:42;;;;;;;12.50;6.22;;;;;;;;;;5111033;28;20119;-63
2023/12/11 01:43:15;;;;;;;15.43;6.88;;;;;;;;;;5129595;28;20031;-62
2023/12/11 01:45:41;;;;;;;9.25;5.07;;;;;;;;;;5129713;28;20023;-64
2023/12/11 01:48:10;;;;;;;14.48;6.47;;;;;;;;;;5116379;28;20019;-60
2023/12/11 01:50:37;;;;;;;10.77;6.13;;;;;;;;;;5109945;28;20031;-62
2023/12/11 01:53:03;;;;;;;15.73;6.18;;;;;;;;;;5110458;28;20020;-61
2023/12/11 01:55:31;;;;;;;18.45;8.18;;;;;;;;;;5110101;28;20533;-61
2023/12/11 01:57:57;;;;;;;14.48;5.30;;;;;;;;;;5110270;28;20020;-61
2023/12/11 02:00:23;;;;;;;21.33;7.30;;;;;;;;;;5091014;28;20027;-62
2023/12/11 02:02:49;;;;;;;17.40;6.47;;;;;;;;;;5109116;28;20493;-63
2023/12/11 02:05:15;;;;;;;27.02;7.47;;;;;;;;;;5090681;28;20019;-61
2023/12/11 02:07:41;;;;;;;14.68;5.95;;;;;;;;;;5108956;28;20497;-62
2023/12/11 02:10:08;;;;;;;9.77;5.80;;;;;;;;;;5108788;28;20031;-61
2023/12/11 02:12:34;;;;;;;15.73;6.25;;;;;;;;;;5110861;28;20110;-63
2023/12/11 02:15:00;;;;;;;8.32;4.97;;;;;;;;;;5130665;28;20027;-60
2023/12/11 02:17:26;;;;;;;10.15;5.72;;;;;;;;;;5130393;28;20023;-61
2023/12/11 02:19:52;;;;;;;11.07;5.88;;;;;;;;;;5111444;28;20015;-62
2023/12/11 02:22:18;;;;;;;14.43;5.95;;;;;;;;;;5110652;28;20477;-62
2023/12/11 02:24:53;;;;;;;11.10;5.82;;;;;;;;;;5129285;28;20019;-62
2023/12/11 02:27:19;;;;;;;9.40;5.32;;;;;;;;;;5120791;28;20102;-63
2023/12/11 02:29:45;;;;;;;19.83;6.50;;;;;;;;;;5090340;28;20499;-63
2023/12/11 02:32:15;;;;;;;12.73;6.43;;;;;;;;;;5090189;28;20045;-62
2023/12/11 02:34:41;;;;;;;13.40;6.45;;;;;;;;;;5087142;28;20017;-62
2023/12/11 02:37:07;;;;;;;11.27;6.00;;;;;;;;;;5118744;28;20023;-63
2023/12/11 02:39:33;;;;;;;11.43;5.80;;;;;;;;;;5110862;27;20025;-63
2023/12/11 02:41:59;;;;;;;12.77;8.55;;;;;;;;;;5127038;27;20075;-63
2023/12/11 02:44:25;;;;;;;9.00;5.32;;;;;;;;;;5121434;27;20045;-62
2023/12/11 02:46:51;;;;;;;8.93;5.30;;;;;;;;;;5133065;27;20415;-63
2023/12/11 02:49:17;;;;;;;10.65;5.80;;;;;;;;;;5133102;27;20129;-62
2023/12/11 02:51:43;;;;;;;11.05;6.60;;;;;;;;;;5132508;27;20445;-62
2023/12/11 02:54:09;;;;;;;9.65;5.60;;;;;;;;;;5132704;27;20132;-63
2023/12/11 02:56:38;;;;;;;9.00;5.30;;;;;;;;;;5121962;27;20148;-63
2023/12/11 02:59:04;;;;;;;10.68;6.40;;;;;;;;;;5112095;28;20023;-63
2023/12/11 03:01:30;;;;;;;9.07;5.38;;;;;;;;;;5091919;28;20020;-63
2023/12/11 03:03:56;;;;;;;9.30;5.25;;;;;;;;;;5107237;27;20392;-63
2023/12/11 03:06:22;;;;;;;11.55;6.95;;;;;;;;;;5132520;27;20488;-64
2023/12/11 03:08:48;;;;;;;8.95;5.30;;;;;;;;;;5132482;27;20101;-63
2023/12/11 03:11:15;;;;;;;10.05;6.25;;;;;;;;;;5132156;27;20544;-63
2023/12/11 03:13:41;;;;;;;11.68;6.10;;;;;;;;;;5131991;27;20023;-62
2023/12/11 03:16:07;;;;;;;18.15;6.60;;;;;;;;;;5132318;27;20019;-62
2023/12/11 03:18:33;;;;;;;12.55;5.55;;;;;;;;;;5120235;27;20015;-63
2023/12/11 03:20:59;;;;;;;11.48;7.45;;;;;;;;;;5119123;27;20030;-64
2023/12/11 03:23:25;;;;;;;8.70;5.05;;;;;;;;;;5113695;27;20023;-63
2023/12/11 03:25:51;;;;;;;10.77;6.15;;;;;;;;;;5132447;27;20025;-64
2023/12/11 03:28:17;;;;;;;8.90;5.55;;;;;;;;;;5124123;27;20077;-63
2023/12/11 03:30:43;;;;;;;12.85;5.95;;;;;;;;;;5120264;27;20016;-61
2023/12/11 03:33:09;;;;;;;17.42;7.18;;;;;;;;;;5126916;27;20020;-63
2023/12/11 03:35:35;;;;;;;21.83;6.28;;;;;;;;;;5132171;27;20023;-63
2023/12/11 03:38:01;;;;;;;10.10;5.68;;;;;;;;;;5117994;27;20024;-63
2023/12/11 03:40:27;;;;;;;17.38;5.75;;;;;;;;;;5129171;27;20438;-62
2023/12/11 03:42:53;;;;;;;10.10;6.47;;;;;;;;;;5113270;27;20087;-63
2023/12/11 03:45:19;;;;;;;9.65;5.93;;;;;;;;;;5113590;27;20027;-63
2023/12/11 03:47:45;;;;;;;10.20;5.47;;;;;;;;;;5096769;27;20023;-61
2023/12/11 03:50:11;;;;;;;9.82;5.43;;;;;;;;;;5106047;28;20039;-62
2023/12/11 03:52:37;;;;;;;10.38;5.95;;;;;;;;;;5104358;27;20076;-62
2023/12/11 03:55:03;;;;;;;10.27;5.90;;;;;;;;;;5098817;28;20027;-62
2023/12/11 03:57:29;;;;;;;10.45;6.10;;;;;;;;;;5110754;28;20030;-62
2023/12/11 03:59:55;;;;;;;16.92;6.28;;;;;;;;;;5110892;28;20023;-62
2023/12/11 04:02:21;;;;;;;13.20;5.78;;;;;;;;;;5110703;28;20375;-62
2023/12/11 04:04:47;;;;;;;10.25;5.32;;;;;;;;;;5092427;28;20012;-62
2023/12/11 04:07:13;;;;;;;11.40;5.95;;;;;;;;;;5109931;27;20018;-62
2023/12/11 04:09:39;;;;;;;18.65;6.18;;;;;;;;;;5131623;27;20019;-63
2023/12/11 04:12:05;;;;;;;9.98;5.90;;;;;;;;;;5131426;27;20023;-63
2023/12/11 04:14:31;;;;;;;10.30;7.13;;;;;;;;;;5113019;27;20642;-63
2023/12/11 04:16:57;;;;;;;9.25;5.45;;;;;;;;;;5125962;27;20024;-63
2023/12/11 04:19:23;;;;;;;10.48;6.10;;;;;;;;;;5111945;28;20030;-63
2023/12/11 04:21:49;;;;;;;9.23;5.22;;;;;;;;;;5112347;28;20031;-62
2023/12/11 04:24:15;;;;;;;11.40;6.03;;;;;;;;;;5092390;28;20490;-62
2023/12/11 04:26:41;;;;;;;9.30;5.50;;;;;;;;;;5111025;28;20051;-62
2023/12/11 04:29:07;;;;;;;9.82;5.72;;;;;;;;;;5110906;28;20024;-63
2023/12/11 04:31:33;;;;;;;9.95;6.03;;;;;;;;;;5110719;28;20054;-62
2023/12/11 04:34:00;;;;;;;13.73;8.70;;;;;;;;;;5092351;28;20076;-62
2023/12/11 04:36:26;;;;;;;11.27;6.88;;;;;;;;;;5111179;27;20376;-62
2023/12/11 04:38:52;;;;;;;12.88;6.65;;;;;;;;;;5112221;27;20022;-63
2023/12/11 04:41:18;;;;;;;9.00;5.30;;;;;;;;;;5122447;27;20087;-64
2023/12/11 04:43:44;;;;;;;9.20;5.43;;;;;;;;;;5091483;28;20055;-63
2023/12/11 04:46:10;;;;;;;15.70;9.52;;;;;;;;;;5109795;28;20043;-63
2023/12/11 04:48:36;;;;;;;10.40;5.93;;;;;;;;;;5109342;28;20641;-62
2023/12/11 04:51:03;;;;;;;11.13;5.93;;;;;;;;;;5109397;28;20076;-62
2023/12/11 04:53:29;;;;;;;17.33;7.63;;;;;;;;;;5109534;28;20152;-63
2023/12/11 04:55:55;;;;;;;14.88;7.75;;;;;;;;;;5109603;28;20011;-63
2023/12/11 04:58:22;;;;;;;12.73;7.30;;;;;;;;;;5109389;28;20103;-63
2023/12/11 05:00:48;;;;;;;10.38;6.45;;;;;;;;;;5109296;28;20481;-63
2023/12/11 05:03:14;;;;;;;10.80;5.90;;;;;;;;;;5097917;28;20031;-63
2023/12/11 05:05:40;;;;;;;10.32;6.22;;;;;;;;;;5110876;27;20054;-62
2023/12/11 05:08:06;;;;;;;9.80;5.72;;;;;;;;;;5130162;27;20057;-63
2023/12/11 05:10:32;;;;;;;11.45;7.05;;;;;;;;;;5129698;27;20050;-62
2023/12/11 05:12:58;;;;;;;12.30;6.43;;;;;;;;;;5124400;27;20023;-63
2023/12/11 05:15:24;;;;;;;11.93;6.85;;;;;;;;;;5109399;27;20023;-63
2023/12/11 05:17:50;;;;;;;13.48;7.57;;;;;;;;;;5091003;28;20548;-62
2023/12/11 05:20:18;;;;;;;16.65;8.18;;;;;;;;;;5108986;28;20096;-62
2023/12/11 05:22:44;;;;;;;11.77;6.50;;;;;;;;;;5105805;28;20034;-63
2023/12/11 05:25:10;;;;;;;12.85;7.50;;;;;;;;;;5104305;28;20470;-63
2023/12/11 05:27:36;;;;;;;15.23;7.00;;;;;;;;;;5109000;28;20033;-64
2023/12/11 05:30:02;;;;;;;15.13;8.00;;;;;;;;;;5109321;28;20443;-61
2023/12/11 05:32:28;;;;;;;16.73;7.65;;;;;;;;;;5108982;28;20024;-62
2023/12/11 05:34:54;;;;;;;20.95;8.02;;;;;;;;;;5122681;27;20106;-63
2023/12/11 05:37:20;;;;;;;11.68;7.00;;;;;;;;;;5129832;27;20022;-63
2023/12/11 05:39:46;;;;;;;10.80;6.40;;;;;;;;;;5117689;27;20373;-62
2023/12/11 05:42:12;;;;;;;13.38;6.68;;;;;;;;;;5090886;28;20092;-62
2023/12/11 05:44:38;;;;;;;10.05;5.85;;;;;;;;;;5108707;28;20027;-62
2023/12/11 05:47:04;;;;;;;19.90;8.05;;;;;;;;;;5103004;28;20474;-62
2023/12/11 05:49:31;;;;;;;13.52;7.60;;;;;;;;;;5125206;28;20023;-61
2023/12/11 05:51:57;;;;;;;12.82;8.38;;;;;;;;;;5116281;28;20016;-63
2023/12/11 05:54:23;;;;;;;17.15;8.25;;;;;;;;;;5109104;28;20497;-61
2023/12/11 05:56:49;;;;;;;19.88;8.45;;;;;;;;;;5109195;28;20220;-63
2023/12/11 05:59:15;;;;;;;14.50;8.10;;;;;;;;;;5109000;28;20024;-63
2023/12/11 06:01:41;;;;;;;13.40;6.97;;;;;;;;;;5090504;28;20043;-64
2023/12/11 06:04:07;;;;;;;12.88;6.82;;;;;;;;;;5102837;28;20421;-63
2023/12/11 06:06:33;;;;;;;12.35;7.05;;;;;;;;;;5100947;28;20135;-64
2023/12/11 06:08:59;;;;;;;13.75;7.53;;;;;;;;;;5110976;28;20032;-64
2023/12/11 06:11:25;;;;;;;27.65;7.10;;;;;;;;;;5119973;28;20043;-64
2023/12/11 06:13:51;;;;;;;13.48;7.18;;;;;;;;;;5108652;28;20016;-63
2023/12/11 06:16:17;;;;;;;11.77;6.75;;;;;;;;;;5111171;28;20024;-64
2023/12/11 06:18:43;;;;;;;18.70;9.23;;;;;;;;;;5132825;27;20499;-64
2023/12/11 06:21:23;;;;;;;20.90;14.60;;;;;;;;;;5133040;27;20028;-62
2023/12/11 06:23:49;;;;;;;20.48;18.58;;;;;;;;;;5105390;28;20456;-62
2023/12/11 06:26:44;;;;;;;24.95;19.42;;;;;;;;;;5117008;28;20103;-61
2023/12/11 06:29:10;;;;;;;26.88;24.13;;;;;;;;;;5096429;28;20118;-61
2023/12/11 06:31:36;;;;;;;23.48;21.38;;;;;;;;;;5112502;28;20465;-62
2023/12/11 06:34:03;;;;;;;27.40;24.77;;;;;;;;;;5108443;27;20038;-62
2023/12/11 06:36:29;;;;;;;28.73;26.42;;;;;;;;;;5114822;27;20024;-63
2023/12/11 06:38:55;;;;;;;31.52;28.92;;;;;;;;;;5094298;28;20076;-62
2023/12/11 06:41:21;;;;;;;29.25;26.80;;;;;;;;;;5093650;28;20027;-62
2023/12/11 06:43:48;;;;;;;29.55;27.05;;;;;;;;;;5112876;28;20031;-66
2023/12/11 06:46:14;;;;;;;29.48;26.45;;;;;;;;;;5111445;27;20500;-60
2023/12/11 06:48:41;;;;;;;25.38;23.17;;;;;;;;;;5132655;27;20098;-58
2023/12/11 06:51:07;;;;;;;24.65;22.45;;;;;;;;;;5132562;27;20031;-63
2023/12/11 06:53:33;;;;;;;24.15;21.83;;;;;;;;;;5130848;27;20020;-63
2023/12/11 06:55:59;;;;;;;25.55;22.95;;;;;;;;;;5093802;28;20069;-63
2023/12/11 06:58:25;;;;;;;26.52;22.73;;;;;;;;;;5091184;27;20440;-64
2023/12/11 07:00:51;;;;;;;22.98;20.90;;;;;;;;;;5120068;27;20086;-64
2023/12/11 07:03:17;;;;;;;22.70;20.70;;;;;;;;;;5112214;28;20031;-64
2023/12/11 07:05:44;;;;;;;21.80;19.80;;;;;;;;;;5132325;27;20019;-64
2023/12/11 07:08:10;;;;;;;26.30;20.83;;;;;;;;;;5098713;28;20084;-62
2023/12/11 07:10:36;;;;;;;21.45;19.45;;;;;;;;;;5111725;27;20735;-63
2023/12/11 07:13:02;;;;;;;24.67;21.75;;;;;;;;;;5101950;28;20124;-63
2023/12/11 07:15:28;;;;;;;34.80;19.90;;;;;;;;;;5111808;28;20058;-64
2023/12/11 07:17:56;;;;;;;22.98;19.00;;;;;;;;;;5107950;27;20465;-64
2023/12/11 07:20:22;;;;;;;21.35;19.13;;;;;;;;;;5123483;27;20024;-64
2023/12/11 07:22:48;;;;;;;18.20;16.40;;;;;;;;;;5124163;27;20067;-62
2023/12/11 07:25:14;;;;;;;17.17;15.40;;;;;;;;;;5132409;27;20564;-57
2023/12/11 07:27:43;;;;;;;17.70;15.90;;;;;;;;;;5130686;27;20023;-64
2023/12/11 07:30:10;;;;;;;18.20;15.70;;;;;;;;;;5131618;27;20106;-62
2023/12/11 07:32:37;;;;;;;17.33;15.57;;;;;;;;;;5131822;27;20027;-64
2023/12/11 07:35:03;;;;;;;17.50;15.70;;;;;;;;;;5126278;27;20040;-62
2023/12/11 07:37:29;;;;;;;17.40;15.60;;;;;;;;;;5120667;27;20024;-64
2023/12/11 07:39:55;;;;;;;18.08;16.27;;;;;;;;;;5131990;27;20027;-63
2023/12/11 07:42:22;;;;;;;22.08;15.88;;;;;;;;;;5104134;28;20028;-64
2023/12/11 07:44:48;;;;;;;75.93;19.27;;;;;;;;;;5110831;28;20016;-63
2023/12/11 07:47:14;;;;;;;18.77;15.00;;;;;;;;;;5110900;28;20019;-63
2023/12/11 07:49:40;;;;;;;16.33;14.60;;;;;;;;;;5106252;28;20111;-64
2023/12/11 07:52:06;;;;;;;17.30;14.15;;;;;;;;;;5099189;27;20035;-63
2023/12/11 07:54:32;;;;;;;19.67;15.32;;;;;;;;;;5110120;28;20042;-61
2023/12/11 07:56:58;;;;;;;18.48;15.07;;;;;;;;;;5113100;27;20022;-64
2023/12/11 07:59:24;;;;;;;16.58;14.65;;;;;;;;;;5131179;27;20096;-63
2023/12/11 08:01:52;;;;;;;15.30;13.50;;;;;;;;;;5130625;27;20393;-64
2023/12/11 08:04:18;;;;;;;20.27;13.82;;;;;;;;;;5130838;27;20057;-64
2023/12/11 08:06:44;;;;;;;14.55;11.30;;;;;;;;;;5111983;27;20035;-65
2023/12/11 08:09:11;;;;;;;17.20;13.60;;;;;;;;;;5109508;28;20026;-64
2023/12/11 08:11:37;;;;;;;18.50;14.55;;;;;;;;;;5109931;28;20036;-62
2023/12/11 08:14:03;;;;;;;16.67;12.77;;;;;;;;;;5110608;28;20030;-63
2023/12/11 08:16:29;;;;;;;15.85;13.77;;;;;;;;;;5110356;28;20019;-62
2023/12/11 08:18:55;;;;;;;16.20;14.02;;;;;;;;;;5110296;28;20027;-60
2023/12/11 08:21:21;;;;;;;18.35;16.55;;;;;;;;;;5091812;28;20031;-63
2023/12/11 08:23:48;;;;;;;19.00;17.10;;;;;;;;;;5116423;27;20030;-63
2023/12/11 08:26:20;;;;;;;21.65;19.75;;;;;;;;;;5130564;27;20053;-48
2023/12/11 08:28:47;;;;;;;24.15;21.92;;;;;;;;;;5130424;27;20114;-46
2023/12/11 08:31:13;;;;;;;26.63;23.88;;;;;;;;;;5135944;27;20023;-49
2023/12/11 08:33:39;;;;;;;32.25;29.45;;;;;;;;;;5140785;27;20488;-52
2023/12/11 08:36:06;;;;;;;32.30;29.63;;;;;;;;;;5113234;27;20033;-44
2023/12/11 08:38:32;;;;;;;33.80;30.48;;;;;;;;;;5130483;27;20079;-49
2023/12/11 08:40:59;;;;;;;31.35;28.75;;;;;;;;;;5130133;27;20118;-52
2023/12/11 08:43:26;;;;;;;31.50;29.00;;;;;;;;;;5129970;27;20066;-52
2023/12/11 08:45:52;;;;;;;30.30;27.83;;;;;;;;;;5130256;27;20064;-50
2023/12/11 08:48:18;;;;;;;33.30;30.50;;;;;;;;;;5130281;27;20051;-44
2023/12/11 08:50:44;;;;;;;31.95;29.35;;;;;;;;;;5101412;28;20028;-46
2023/12/11 08:53:10;;;;;;;32.75;29.85;;;;;;;;;;5109484;28;20473;-47
2023/12/11 08:55:36;;;;;;;32.00;29.40;;;;;;;;;;5092719;27;20396;-49
2023/12/11 08:58:03;;;;;;;31.88;29.17;;;;;;;;;;5130318;27;20120;-48
2023/12/11 09:00:29;;;;;;;31.75;29.20;;;;;;;;;;5132862;27;20050;-49
2023/12/11 09:02:55;;;;;;;42.30;28.20;;;;;;;;;;5135507;27;20461;-48
2023/12/11 09:05:21;;;;;;;29.38;26.98;;;;;;;;;;5136090;27;20049;-48
2023/12/11 09:07:47;;;;;;;26.30;24.10;;;;;;;;;;5133720;27;20374;-52
2023/12/11 09:10:13;;;;;;;29.30;23.08;;;;;;;;;;5114176;27;20592;-49
2023/12/11 09:12:40;;;;;;;24.60;22.40;;;;;;;;;;5130658;27;20047;-54
2023/12/11 09:15:06;;;;;;;25.50;22.13;;;;;;;;;;5129596;27;20091;-53
2023/12/11 09:17:32;;;;;;;24.00;21.75;;;;;;;;;;5129681;27;20065;-53
2023/12/11 09:19:59;;;;;;;24.45;21.83;;;;;;;;;;5129722;27;20023;-52
2023/12/11 09:22:25;;;;;;;25.60;23.38;;;;;;;;;;5129502;27;20410;-52
2023/12/11 09:24:51;;;;;;;26.48;23.70;;;;;;;;;;5109626;28;20020;-56
2023/12/11 09:27:17;;;;;;;26.02;23.73;;;;;;;;;;5109879;28;20026;-55
2023/12/11 09:29:43;;;;;;;27.50;25.20;;;;;;;;;;5108613;28;20513;-55
2023/12/11 09:32:09;;;;;;;27.70;25.40;;;;;;;;;;5116393;27;20107;-53
2023/12/11 09:34:35;;;;;;;29.10;26.35;;;;;;;;;;5129371;27;20034;-53
2023/12/11 09:37:02;;;;;;;24.73;22.63;;;;;;;;;;5129237;27;20022;-56
2023/12/11 09:39:28;;;;;;;27.83;24.83;;;;;;;;;;5129106;27;20039;-54
2023/12/11 09:41:55;;;;;;;27.48;24.77;;;;;;;;;;5129285;27;20282;-52
2023/12/11 09:44:21;;;;;;;24.52;22.33;;;;;;;;;;5129085;28;20027;-54
2023/12/11 09:47:08;;;;;;;24.95;22.85;;;;;;;;;;5129329;28;20023;-54
2023/12/11 09:49:34;;;;;;;25.20;22.77;;;;;;;;;;5113810;28;20470;-52
2023/12/11 09:52:00;;;;;;;26.88;24.48;;;;;;;;;;5112542;28;20111;-52
2023/12/11 09:54:26;;;;;;;26.95;24.45;;;;;;;;;;5112614;28;20027;-56
2023/12/11 09:56:52;;;;;;;26.60;24.10;;;;;;;;;;5112895;28;20027;-54
2023/12/11 09:59:19;;;;;;;23.38;20.98;;;;;;;;;;5112957;28;20396;-56
2023/12/11 10:01:47;;;;;;;23.02;17.70;;;;;;;;;;5112441;28;20098;-55
2023/12/11 10:04:13;;;;;;;16.40;14.70;;;;;;;;;;5112499;28;20030;-53
2023/12/11 10:06:39;;;;;;;20.70;16.85;;;;;;;;;;5112681;28;20055;-53
2023/12/11 10:09:05;;;;;;;17.15;15.27;;;;;;;;;;5094375;28;20115;-54
2023/12/11 10:11:31;;;;;;;21.73;15.57;;;;;;;;;;5112391;28;20049;-54
2023/12/11 10:14:16;;;;;;;18.02;14.80;;;;;;;;;;5112648;28;20098;-53
2023/12/11 10:16:43;;;;;;;15.85;14.02;;;;;;;;;;5112803;28;20023;-53
2023/12/11 10:19:09;;;;;;;15.65;13.65;;;;;;;;;;5112584;28;20409;-54
2023/12/11 10:21:43;;;;;;;33.60;15.07;;;;;;;;;;5111987;28;20019;-54
2023/12/11 10:24:14;;;;;;;17.50;15.50;;;;;;;;;;5112411;28;20088;-56
2023/12/11 10:26:48;;;;;;;16.52;14.80;;;;;;;;;;5112010;28;20381;-55
2023/12/11 10:29:20;;;;;;;17.83;14.65;;;;;;;;;;5112200;28;20508;-54
2023/12/11 10:31:46;;;;;;;16.10;13.88;;;;;;;;;;5111442;28;20024;-55
2023/12/11 10:34:12;;;;;;;23.63;14.30;;;;;;;;;;5112451;28;20031;-56
2023/12/11 10:36:52;;;;;;;15.93;13.40;;;;;;;;;;5112635;28;20038;-51
2023/12/11 10:39:21;;;;;;;19.20;12.50;;;;;;;;;;5098259;28;20015;-58
2023/12/11 10:41:47;;;;;;;15.85;10.70;;;;;;;;;;5119864;28;20270;-50
2023/12/11 10:44:23;;;;;;;27.40;10.07;;;;;;;;;;5112136;28;20059;-55
2023/12/11 10:46:51;;;;;;;12.70;7.50;;;;;;;;;;5112377;28;20073;-54
2023/12/11 10:49:19;;;;;;;16.45;7.55;;;;;;;;;;5111826;28;20028;-56
2023/12/11 10:51:46;;;;;;;13.68;7.20;;;;;;;;;;5111723;28;20020;-55
2023/12/11 10:54:12;;;;;;;13.70;7.70;;;;;;;;;;5112100;28;20092;-52
2023/12/11 10:56:39;;;;;;;11.32;6.95;;;;;;;;;;5093688;28;20110;-55
2023/12/11 10:59:06;;;;;;;12.20;6.18;;;;;;;;;;5111943;28;20046;-53
2023/12/11 11:01:33;;;;;;;14.20;6.43;;;;;;;;;;5111583;28;20046;-58
2023/12/11 11:03:59;;;;;;;16.63;6.70;;;;;;;;;;5111551;28;20123;-55
2023/12/11 11:06:28;;;;;;;14.07;6.20;;;;;;;;;;5111328;28;20033;-54
2023/12/11 11:09:01;;;;;;;9.68;5.43;;;;;;;;;;5111905;28;20103;-53
2023/12/11 11:11:32;;;;;;;9.93;5.72;;;;;;;;;;5111346;28;20051;-56
2023/12/11 11:14:04;;;;;;;16.98;8.10;;;;;;;;;;5111421;28;20016;-58
2023/12/11 11:16:49;;;;;;;14.32;7.20;;;;;;;;;;5109996;28;20047;-52
2023/12/11 11:19:15;;;;;;;14.57;8.43;;;;;;;;;;5122689;27;20342;-52
2023/12/11 11:21:42;;;;;;;14.40;8.63;;;;;;;;;;5131502;27;20087;-53
2023/12/11 11:24:26;;;;;;;16.42;8.80;;;;;;;;;;5131504;27;20044;-53
2023/12/11 11:26:52;;;;;;;17.48;10.70;;;;;;;;;;5127241;27;20020;-56
2023/12/11 11:29:37;;;;;;;17.60;11.50;;;;;;;;;;5111060;28;20038;-55
2023/12/11 11:32:03;;;;;;;14.80;10.05;;;;;;;;;;5110589;28;20269;-54
2023/12/11 11:34:42;;;;;;;14.73;11.23;;;;;;;;;;5092350;28;20048;-54
2023/12/11 11:37:17;;;;;;;16.48;11.25;;;;;;;;;;5110844;28;20020;-55
2023/12/11 11:39:59;;;;;;;14.40;9.98;;;;;;;;;;5110844;28;20030;-54
2023/12/11 11:42:25;;;;;;;13.80;8.10;;;;;;;;;;5110136;28;20739;-55
2023/12/11 11:44:58;;;;;;;13.57;8.50;;;;;;;;;;5110513;28;20363;-53
2023/12/11 11:47:24;;;;;;;16.92;10.85;;;;;;;;;;5110339;28;20377;-56
2023/12/11 11:49:50;;;;;;;16.70;9.45;;;;;;;;;;5110549;28;20028;-51
2023/12/11 11:52:20;;;;;;;12.70;7.50;;;;;;;;;;5110082;28;20404;-58
2023/12/11 11:54:46;;;;;;;12.98;7.55;;;;;;;;;;5110543;28;20020;-54
2023/12/11 11:57:12;;;;;;;18.77;8.77;;;;;;;;;;5110431;28;20032;-54
2023/12/11 11:59:42;;;;;;;16.52;7.97;;;;;;;;;;5110221;28;20073;-52
2023/12/11 12:02:08;;;;;;;13.32;7.70;;;;;;;;;;5110242;28;20028;-56
2023/12/11 12:04:34;;;;;;;13.60;8.10;;;;;;;;;;5110246;28;20643;-53
2023/12/11 12:07:05;;;;;;;13.90;8.02;;;;;;;;;;5110508;28;20038;-54
2023/12/11 12:09:34;;;;;;;12.85;7.63;;;;;;;;;;5091994;28;20020;-51
2023/12/11 12:12:01;;;;;;;14.20;7.53;;;;;;;;;;5110238;28;20084;-54
2023/12/11 12:14:27;;;;;;;12.55;7.45;;;;;;;;;;5109815;27;20024;-54
2023/12/11 12:16:53;;;;;;;17.25;8.27;;;;;;;;;;5130242;27;20082;-54
2023/12/11 12:19:32;;;;;;;10.95;6.40;;;;;;;;;;5130646;27;20050;-54
2023/12/11 12:21:58;;;;;;;;;;;;;;;;;;5130769;27;20058;-57
2023/12/11 12:24:25;;;;;;;13.07;7.60;;;;;;;;;;5130099;27;19910;-56
2023/12/11 12:27:11;;;;;;;15.45;9.48;;;;;;;;;;5130373;27;20023;-56
2023/12/11 12:29:38;;;;;;;15.35;9.90;;;;;;;;;;5111562;27;20035;-54
2023/12/11 12:32:04;;;;;;;14.45;11.10;;;;;;;;;;5109326;27;20042;-55
2023/12/11 12:34:31;;;;;;;14.90;11.95;;;;;;;;;;5129797;27;20034;-55
2023/12/11 12:37:00;;;;;;;17.50;15.70;;;;;;;;;;5130565;27;20135;-55
2023/12/11 12:39:26;;;;;;;14.90;12.10;;;;;;;;;;5130334;27;20011;-55
2023/12/11 12:41:53;;;;;;;15.55;12.90;;;;;;;;;;5130295;27;20027;-55
2023/12/11 12:44:19;;;;;;;17.20;12.40;;;;;;;;;;5111368;22;20040;-51
2023/12/11 12:46:46;;;;;;;14.55;11.30;;;;;;;;;;5069838;28;20113;-53
2023/12/11 12:49:13;;;;;;;14.00;9.60;;;;;;;;;;5070291;28;20025;-48
2023/12/11 12:51:47;;;;;;;13.52;8.50;;;;;;;;;;5069932;28;20473;-53
2023/12/11 12:54:14;;;;;;;17.35;9.82;;;;;;;;;;5052192;28;20582;-52
2023/12/11 12:56:41;;;;;;;13.57;8.70;;;;;;;;;;5070197;28;20017;-55
2023/12/11 12:59:07;;;;;;;13.90;9.80;;;;;;;;;;5070273;28;20141;-53
2023/12/11 13:01:36;;;;;;;15.60;8.45;;;;;;;;;;5069931;28;20023;-51
2023/12/11 13:04:02;;;;;;;13.52;8.23;;;;;;;;;;5052304;28;20086;-51
2023/12/11 13:06:28;;;;;;;15.73;8.15;;;;;;;;;;5069681;28;20059;-52
2023/12/11 13:08:54;;;;;;;13.65;8.50;;;;;;;;;;5069878;28;20086;-52
2023/12/11 13:11:20;;;;;;;14.18;9.57;;;;;;;;;;5069574;28;20032;-52
2023/12/11 13:13:56;;;;;;;14.00;9.70;;;;;;;;;;5058587;28;20414;-50
2023/12/11 13:16:22;;;;;;;14.65;9.48;;;;;;;;;;5041489;28;20021;-49
2023/12/11 13:18:51;;;;;;;17.42;8.70;;;;;;;;;;5056634;28;20031;-50
2023/12/11 13:21:18;;;;;;;16.40;9.40;;;;;;;;;;5048280;28;20029;-52
2023/12/11 13:23:44;;;;;;;13.32;8.00;;;;;;;;;;5048879;28;20032;-51
2023/12/11 13:26:10;;;;;;;17.30;8.15;;;;;;;;;;5047518;28;20033;-53
2023/12/11 13:28:36;;;;;;;15.43;7.35;;;;;;;;;;5048507;28;20037;-54
2023/12/11 13:31:02;;;;;;;12.50;7.25;;;;;;;;;;5047860;28;20153;-55
2023/12/11 13:33:30;;;;;;;13.77;8.07;;;;;;;;;;5047925;28;20021;-55
2023/12/11 13:35:57;;;;;;;14.00;6.70;;;;;;;;;;5048123;28;20028;-50
2023/12/11 13:38:23;;;;;;;13.20;6.70;;;;;;;;;;5031352;28;20344;-49
2023/12/11 13:40:49;;;;;;;19.10;6.72;;;;;;;;;;5031856;28;20036;-50
2023/12/11 13:43:15;;;;;;;11.25;6.40;;;;;;;;;;5049715;28;20459;-52
2023/12/11 13:45:41;;;;;;;10.23;5.97;;;;;;;;;;5031904;28;20179;-52
2023/12/11 13:48:08;;;;;;;10.80;6.20;;;;;;;;;;5049682;28;20037;-50
2023/12/11 13:50:35;;;;;;;11.32;6.40;;;;;;;;;;5049313;28;20086;-52
2023/12/11 13:53:01;;;;;;;11.88;6.80;;;;;;;;;;5049951;28;20017;-52
2023/12/11 13:55:27;;;;;;;10.00;5.88;;;;;;;;;;5049838;28;20024;-53
2023/12/11 13:57:53;;;;;;;11.85;6.47;;;;;;;;;;5049759;28;20364;-50
2023/12/11 14:00:19;;;;;;;13.60;7.35;;;;;;;;;;5049615;28;20032;-52
2023/12/11 14:02:45;;;;;;;16.13;6.45;;;;;;;;;;5050149;28;20094;-52
2023/12/11 14:05:14;;;;;;;14.90;6.80;;;;;;;;;;5049882;28;20049;-55
2023/12/11 14:07:41;;;;;;;9.63;5.70;;;;;;;;;;5049985;28;20021;-48
2023/12/11 14:10:10;;;;;;;11.20;6.35;;;;;;;;;;5048431;28;20021;-53
2023/12/11 14:12:37;;;;;;;11.00;6.40;;;;;;;;;;5048198;28;20366;-51
2023/12/11 14:15:04;;;;;;;13.82;8.65;;;;;;;;;;5049943;28;20035;-56
2023/12/11 14:17:31;;;;;;;12.07;7.00;;;;;;;;;;5049816;28;20052;-52
2023/12/11 14:19:57;;;;;;;12.10;7.20;;;;;;;;;;5049386;28;20104;-53
2023/12/11 14:22:23;;;;;;;12.20;7.30;;;;;;;;;;5049173;28;20116;-53
2023/12/11 14:24:49;;;;;;;12.77;7.10;;;;;;;;;;5051608;28;20464;-53